Garryowen, MT (59031)

5:28 AM MDT on July 31, 2014 (GMT -0600)
Sheridan County (KSHR) Elev 3967 ft | 44.76 °N, 106.97 °W | Change Station

Current weather conditions updated 35 minutes ago

Clear
Clear
49 °F
Feels Like 49 °F
N
4
Wind Variable Wind from South

Today is forecast to be Warmer than yesterday.

Today
High -- | Low -- °F
--% Chance of Precip.
Yesterday
High -- | Low -- °F
Precip. -- in
5:51 AM 8:38 PM
Waxing Crescent, 18% visible
Pressure 30.10 in
Visibility 10.0 miles
Clouds Clear
Dew Point 41 °F
Humidity 74%
Rainfall 0.00 in
Snow Depth Not available.
UV 0 out of 12
Pollen 6.70 out of 12
Air Quality Not available.
Flu Activity Not available.
METAR KSHR 311053Z AUTO 17003KT 10SM CLR 09/05 A3018 RMK AO2 SLP191 T00940050 $

More Conditions Fewer Conditions

Pressure 30.10 in
Visibility 10.0 miles
Clouds Clear
Dew Point 41 °F
Humidity 74%
Rainfall 0.00 in
Snow Depth Not available.
UV 0 out of 12
Pollen 6.70 out of 12
Air Quality Not available.
Flu Activity Not available.
METAR KSHR 311053Z AUTO 17003KT 10SM CLR 09/05 A3018 RMK AO2 SLP191 T00940050 $

More Conditions Fewer Conditions

10-Day Weather Forecast

Almanac

Astronomy

Jul. 31, 2014 Rise Set
Actual Time 5:51 AM MDT 8:38 PM MDT
Civil Twilight 5:17 AM MDT 9:12 PM MDT
Nautical Twilight 4:34 AM MDT 9:55 PM MDT
Astronomical Twilight 3:43 AM MDT 10:45 PM MDT
Moon 10:37 AM MDT 10:35 PM MDT
Length of Visible Light 15h 54m
Length of Day
14h 46m
Tomorrow will be 2m 26s shorter.
Waxing Crescent, 18% of the Moon is Illuminated
Today
Waxing Crescent
Aug 3
First Quarter
Aug 10
Full
Aug 17
Last Quarter
Aug 25
New

Today's Extremes

State Highs State Lows

Community

WunderPhotos

Upload Photos

1,739,296 photos uploaded!

WunderBlogs® & News

Nearby

Snow Depth

Station Depth Elevation
Cole Creek 0 in 7850 ft
White Mill 2 in 8700 ft
Fisher Creek 0 in 9100 ft
Northeast Entrance 0 in 7350 ft
Crystal Lake 0 in 6050 ft

Earthquake Activity

City Distance Mag. Time & Date
No recent earthquake activity has been reported nearby.
Minimum magnitude displayed is 2.5.

Coastal Water Temperatures

Place Temperature
No Stations Reporting

Nearby Weather Stations

Station Location Temp. Dew Point Humidity Wind Precip. Elev Updated Type
RAWS LITTLE BIGHORN MT, Crow Agency, MT 61 °F 41 °F 48% SE  at  9 mph 0.00 in / hr 3196 ft 3:59 AM MDT MADIS

Show More Stations Show Fewer Stations